Time;durP1;ratioP1;P1;durP2;ratioP2;P2;SDS_P1;SDS_P2;PMS_P1;PMS_P2;Temp;Humidity;BMP_temperature;BMP_pressure;BME280_temperature;BME280_humidity;BME280_pressure;Samples;Min_cycle;Max_cycle;Signal;HPM_P1;HPM_P2
2023/12/23 00:04:42;;;;;;;6.57;3.20;;;;;;;12.81;46.00;99422.47;10463116;28;20243;-66
2023/12/23 00:09:44;;;;;;;3.10;2.77;;;;;;;13.05;46.17;99396.81;10461359;28;20230;-65
2023/12/23 00:14:46;;;;;;;6.10;3.20;;;;;;;13.20;45.83;99372.38;10483402;28;20733;-65
2023/12/23 00:19:47;;;;;;;6.93;3.33;;;;;;;12.86;46.36;99415.41;10482038;28;20767;-66
2023/12/23 00:24:49;;;;;;;5.43;3.03;;;;;;;13.36;46.56;99322.72;10509444;28;20230;-66
2023/12/23 00:29:51;;;;;;;3.33;2.70;;;;;;;13.48;46.10;99394.41;10543664;28;20754;-67
2023/12/23 00:34:52;;;;;;;7.97;3.27;;;;;;;14.01;45.58;99363.72;10549866;28;20253;-66
2023/12/23 00:39:54;;;;;;;4.93;3.00;;;;;;;12.64;47.22;99371.06;10535624;28;20739;-66
2023/12/23 00:44:56;;;;;;;7.30;3.27;;;;;;;13.69;45.18;99461.56;10548261;28;20761;-66
2023/12/23 00:49:58;;;;;;;6.13;3.23;;;;;;;13.01;46.59;99436.69;10542379;28;20348;-66
2023/12/23 00:54:59;;;;;;;7.60;3.17;;;;;;;13.54;45.25;99453.75;10543219;28;20235;-65
2023/12/23 01:00:01;;;;;;;6.17;2.90;;;;;;;11.95;47.16;99501.75;10558752;22;20241;-36
2023/12/23 01:05:03;;;;;;;3.80;2.97;;;;;;;14.65;43.11;99495.59;10545320;28;20288;-36
2023/12/23 01:10:05;;;;;;;4.53;3.03;;;;;;;14.19;44.30;99430.28;10532360;28;20235;-36
2023/12/23 01:15:07;;;;;;;7.30;3.40;;;;;;;13.48;45.03;99450.88;10540703;28;20711;-36
2023/12/23 01:20:09;;;;;;;8.90;3.40;;;;;;;14.27;44.25;99431.88;10543866;28;20260;-36
2023/12/23 01:25:11;;;;;;;7.10;2.70;;;;;;;13.97;44.35;99486.25;10520469;28;20234;-36
2023/12/23 01:30:13;;;;;;;6.60;2.83;;;;;;;12.21;46.62;99514.41;10528478;28;20277;-36
2023/12/23 01:35:14;;;;;;;6.77;3.00;;;;;;;13.37;45.04;99499.88;10533199;28;20613;-36
2023/12/23 01:40:16;;;;;;;5.23;2.83;;;;;;;13.12;45.83;99454.00;10509059;28;20237;-36
2023/12/23 01:45:19;;;;;;;5.53;2.83;;;;;;;12.80;46.23;99472.63;10527508;28;20262;-36
2023/12/23 01:50:22;;;;;;;4.43;2.90;;;;;;;12.86;45.97;99450.34;10502500;28;20208;-36
2023/12/23 01:55:26;;;;;;;4.23;2.60;;;;;;;13.92;44.00;99525.56;10527723;28;20229;-36
2023/12/23 02:00:28;;;;;;;5.83;2.60;;;;;;;13.89;44.32;99478.44;10525974;28;20242;-36
2023/12/23 02:05:30;;;;;;;5.93;2.70;;;;;;;13.75;43.96;99527.91;10526023;28;20302;-36
2023/12/23 02:10:33;;;;;;;4.50;3.20;;;;;;;13.84;43.84;99537.41;10527889;28;20241;-35
2023/12/23 02:15:36;;;;;;;7.17;3.07;;;;;;;13.66;44.45;99487.81;10508207;28;20946;-35
2023/12/23 02:20:38;;;;;;;7.37;2.90;;;;;;;12.92;45.27;99494.31;10526761;28;20202;-35
2023/12/23 02:25:40;;;;;;;7.53;3.00;;;;;;;13.29;44.22;99554.69;10524791;28;20321;-36
2023/12/23 02:30:44;;;;;;;3.63;2.60;;;;;;;14.06;43.46;99502.16;10524624;28;20230;-35
2023/12/23 02:35:52;;;;;;;5.57;3.00;;;;;;;12.95;45.14;99536.06;10523638;28;20222;-35
2023/12/23 02:40:54;;;;;;;7.07;2.90;;;;;;;12.69;45.65;99518.91;10524779;28;20213;-36
2023/12/23 02:45:55;;;;;;;4.90;2.93;;;;;;;14.43;43.54;99470.09;10518142;28;20337;-35
2023/12/23 02:50:57;;;;;;;5.30;2.87;;;;;;;13.07;44.91;99516.41;10523360;28;20234;-34
2023/12/23 02:55:59;;;;;;;5.57;3.40;;;;;;;14.37;43.52;99451.06;10523568;28;20848;-35
2023/12/23 03:01:07;;;;;;;9.37;3.00;;;;;;;14.50;42.96;99490.53;10481086;28;20223;-36
2023/12/23 03:06:13;;;;;;;4.53;2.60;;;;;;;13.91;43.90;99472.84;10506702;28;20315;-35
2023/12/23 03:11:15;;;;;;;6.10;2.80;;;;;;;14.33;43.62;99425.63;10524903;28;20246;-35
2023/12/23 03:16:18;;;;;;;5.80;2.80;;;;;;;13.87;43.73;99510.09;10523537;28;20773;-36
2023/12/23 03:21:22;;;;;;;7.53;3.10;;;;;;;13.56;44.26;99490.13;10524707;28;20236;-35
2023/12/23 03:26:24;;;;;;;5.10;2.93;;;;;;;14.23;43.33;99457.56;10523871;28;20521;-35
2023/12/23 03:31:26;;;;;;;4.73;2.77;;;;;;;13.37;43.54;99559.00;10522347;28;20241;-35
2023/12/23 03:36:29;;;;;;;5.63;2.97;;;;;;;13.63;43.75;99480.19;10523704;28;20326;-36
2023/12/23 03:41:30;;;;;;;5.63;2.73;;;;;;;13.48;43.20;99593.31;10506223;28;20318;-35
2023/12/23 03:46:32;;;;;;;3.80;3.00;;;;;;;14.50;42.66;99460.09;10525067;28;20226;-35
2023/12/23 03:51:34;;;;;;;4.77;3.00;;;;;;;14.38;42.98;99435.75;10507282;28;20652;-35
2023/12/23 03:56:36;;;;;;;5.60;2.63;;;;;;;13.41;44.33;99436.63;10531085;28;20265;-35
2023/12/23 04:01:37;;;;;;;5.47;2.93;;;;;;;12.70;44.56;99544.69;10531301;28;20313;-35
2023/12/23 04:06:39;;;;;;;6.30;3.13;;;;;;;13.02;43.00;99596.78;10528927;28;20739;-34
2023/12/23 04:11:41;;;;;;;4.40;2.50;;;;;;;13.58;43.18;99484.53;10529887;28;20253;-35
2023/12/23 04:16:42;;;;;;;5.13;2.70;;;;;;;12.98;43.75;99603.63;10530251;28;20658;-35
2023/12/23 04:21:44;;;;;;;5.17;2.80;;;;;;;13.65;43.27;99515.75;10525394;28;20226;-35
2023/12/23 04:26:46;;;;;;;4.07;2.60;;;;;;;13.16;44.03;99540.38;10526712;28;20242;-35
2023/12/23 04:31:48;;;;;;;6.00;3.07;;;;;;;13.57;43.19;99563.53;10530705;28;20243;-36
2023/12/23 04:36:49;;;;;;;6.40;3.27;;;;;;;13.60;43.33;99526.31;10528794;28;20254;-35
2023/12/23 04:41:53;;;;;;;5.13;2.60;;;;;;;12.90;44.36;99560.84;10525786;28;20226;-35
2023/12/23 04:46:55;;;;;;;4.43;2.93;;;;;;;12.25;45.64;99494.22;10528044;28;20288;-36
2023/12/23 04:51:57;;;;;;;4.57;2.67;;;;;;;13.90;43.37;99474.69;10522813;28;20715;-35
2023/12/23 04:56:59;;;;;;;3.77;2.63;;;;;;;13.83;44.12;99412.03;10526976;28;20325;-36
2023/12/23 05:02:02;;;;;;;4.03;3.03;;;;;;;14.48;43.54;99352.63;10528751;28;20226;-34
2023/12/23 05:07:04;;;;;;;3.13;2.50;;;;;;;12.01;45.82;99605.53;10528522;28;20235;-34
2023/12/23 05:12:06;;;;;;;3.83;2.83;;;;;;;13.23;46.07;99335.16;10529515;28;20314;-35
2023/12/23 05:17:08;;;;;;;3.17;2.77;;;;;;;12.49;45.91;99554.59;10524599;28;20284;-36
2023/12/23 05:22:09;;;;;;;2.93;2.73;;;;;;;12.53;46.46;99448.47;10528659;28;20607;-35
2023/12/23 05:27:13;;;;;;;5.97;3.07;;;;;;;12.95;45.98;99456.31;10527160;28;20731;-35
2023/12/23 05:32:15;;;;;;;6.80;3.00;;;;;;;13.90;45.20;99385.91;10528532;28;20232;-35
2023/12/23 05:37:17;;;;;;;6.80;3.60;;;;;;;13.28;45.06;99509.22;10525862;28;20242;-35
2023/12/23 05:42:19;;;;;;;4.13;2.97;;;;;;;12.89;46.03;99435.66;10527098;28;20643;-36
2023/12/23 05:47:20;;;;;;;3.40;3.10;;;;;;;13.06;45.84;99470.97;10526206;28;20255;-35
2023/12/23 05:52:22;;;;;;;3.50;3.20;;;;;;;13.06;45.49;99460.25;10519347;28;20341;-35
2023/12/23 05:57:24;;;;;;;4.03;2.90;;;;;;;13.81;45.22;99363.03;10526299;28;20235;-35
2023/12/23 06:02:28;;;;;;;5.37;2.93;;;;;;;13.14;45.91;99373.22;10526224;28;20236;-36
2023/12/23 06:07:30;;;;;;;4.80;3.00;;;;;;;12.61;46.45;99379.53;10526261;28;20231;-35
2023/12/23 06:12:32;;;;;;;2.80;2.50;;;;;;;13.46;44.83;99419.84;10526948;28;20234;-35
2023/12/23 06:17:34;;;;;;;5.60;3.23;;;;;;;11.79;46.47;99493.03;10524123;28;20716;-36
2023/12/23 06:22:35;;;;;;;8.03;3.30;;;;;;;12.41;46.33;99401.78;10508005;28;20237;-36
2023/12/23 06:27:37;;;;;;;3.53;2.70;;;;;;;12.36;45.97;99437.25;10525125;28;20234;-36
2023/12/23 06:32:39;;;;;;;4.20;3.60;;;;;;;12.21;45.98;99447.34;10524662;28;20234;-36
2023/12/23 06:37:41;;;;;;;4.03;3.33;;;;;;;11.63;46.48;99486.16;10524131;28;20266;-36
2023/12/23 06:42:42;;;;;;;5.43;3.70;;;;;;;13.38;44.48;99463.91;10523410;28;20237;-36
2023/12/23 06:47:44;;;;;;;6.43;3.10;;;;;;;13.38;45.00;99429.00;10524504;28;20226;-35
2023/12/23 06:52:46;;;;;;;5.93;3.43;;;;;;;13.13;46.12;99385.84;10524475;28;20235;-35
2023/12/23 06:57:48;;;;;;;5.27;3.33;;;;;;;12.68;46.42;99485.03;10519522;28;20634;-36
2023/12/23 07:02:51;;;;;;;4.00;3.47;;;;;;;12.78;46.70;99401.41;10524176;28;20227;-35
2023/12/23 07:07:53;;;;;;;4.43;3.27;;;;;;;13.45;45.81;99443.22;10501259;28;20222;-35
2023/12/23 07:12:55;;;;;;;3.27;2.97;;;;;;;13.35;46.04;99369.47;10523121;28;20279;-43
2023/12/23 07:17:57;;;;;;;3.87;3.50;;;;;;;13.49;46.40;99338.78;10523322;28;20245;-43
2023/12/23 07:22:59;;;;;;;4.97;2.90;;;;;;;13.75;45.91;99319.00;10530836;28;20228;-43
2023/12/23 07:28:01;;;;;;;3.00;2.73;;;;;;;12.42;46.94;99510.78;10527380;28;20245;-44
2023/12/23 07:33:03;;;;;;;2.83;2.37;;;;;;;13.85;45.53;99399.19;10529493;28;20284;-43
2023/12/23 07:38:05;;;;;;;2.20;2.00;;;;;;;11.96;47.97;99445.25;10530135;28;20227;-44
2023/12/23 07:43:07;;;;;;;2.77;2.57;;;;;;;12.39;48.12;99336.75;10531367;28;20242;-43
2023/12/23 07:48:09;;;;;;;2.70;2.50;;;;;;;12.53;47.90;99357.22;10529129;28;20830;-43
2023/12/23 07:53:11;;;;;;;4.30;3.33;;;;;;;13.49;45.80;99419.44;10530340;28;20235;-43
2023/12/23 07:58:12;;;;;;;3.00;2.70;;;;;;;12.18;47.49;99453.13;10530063;28;20226;-43
2023/12/23 08:03:14;;;;;;;2.67;2.47;;;;;;;13.81;45.59;99323.50;10525988;28;20232;-43
2023/12/23 08:08:16;;;;;;;3.73;3.10;;;;;;;13.02;45.43;99528.81;10510689;28;20230;-43
2023/12/23 08:13:18;;;;;;;2.80;2.60;;;;;;;12.71;45.71;99503.41;10529769;28;20234;-43
2023/12/23 08:18:20;;;;;;;3.43;2.40;;;;;;;13.96;44.23;99405.75;10528339;28;20227;-43
2023/12/23 08:23:22;;;;;;;3.03;2.63;;;;;;;13.67;45.78;99349.66;10527807;28;20621;-43
2023/12/23 08:28:23;;;;;;;3.13;2.20;;;;;;;12.63;46.19;99458.78;10525563;28;20227;-43
2023/12/23 08:33:25;;;;;;;2.30;2.20;;;;;;;13.33;45.68;99395.69;10527758;28;20257;-43
2023/12/23 08:38:27;;;;;;;2.20;2.10;;;;;;;14.02;44.46;99378.81;10528427;28;20733;-43
2023/12/23 08:43:29;;;;;;;2.30;2.20;;;;;;;12.65;46.04;99494.31;10524367;28;20342;-43
2023/12/23 08:48:30;;;;;;;3.53;2.50;;;;;;;12.80;46.08;99501.34;10522302;28;20350;-42
2023/12/23 08:53:32;;;;;;;6.90;3.90;;;;;;;12.93;46.08;99431.53;10526110;28;20588;-43
2023/12/23 08:58:34;;;;;;;2.70;2.50;;;;;;;12.07;46.94;99470.66;10527003;28;20238;-43
2023/12/23 09:03:35;;;;;;;2.03;1.93;;;;;;;13.02;45.46;99453.63;10526654;28;20439;-43
2023/12/23 09:08:38;;;;;;;2.30;2.20;;;;;;;12.83;45.86;99456.13;10518092;28;20325;-42
2023/12/23 09:13:40;;;;;;;2.03;1.90;;;;;;;13.66;44.42;99498.56;10525751;28;20256;-43
2023/12/23 09:18:42;;;;;;;2.23;2.13;;;;;;;12.24;47.15;99507.84;10520433;28;20676;-43
2023/12/23 09:23:44;;;;;;;2.10;2.00;;;;;;;13.34;46.02;99424.25;10522258;28;20263;-43
2023/12/23 09:28:46;;;;;;;2.43;2.30;;;;;;;13.15;45.23;99616.66;10521249;28;20693;-43
2023/12/23 09:33:47;;;;;;;2.33;2.23;;;;;;;13.22;45.55;99496.56;10526582;28;20711;-43
2023/12/23 09:38:49;;;;;;;2.70;2.60;;;;;;;12.93;46.02;99545.13;10524105;28;20199;-43
2023/12/23 09:43:52;;;;;;;2.40;2.30;;;;;;;13.21;46.37;99427.75;10524001;28;20262;-43
2023/12/23 09:48:53;;;;;;;2.13;2.00;;;;;;;12.66;46.65;99438.78;10520073;28;20224;-43
2023/12/23 09:54:00;;;;;;;2.00;1.90;;;;;;;12.34;45.64;99588.78;10520134;28;20229;-43
2023/12/23 09:59:03;;;;;;;2.40;2.20;;;;;;;13.78;45.00;99430.69;9570734;28;10000149;-43
2023/12/23 10:04:04;;;;;;;2.20;2.10;;;;;;;12.59;46.02;99521.97;10390692;28;20317;-43
2023/12/23 10:09:08;;;;;;;2.10;2.00;;;;;;;13.14;45.68;99475.31;10404706;28;20831;-42
2023/12/23 10:14:12;;;;;;;2.10;2.00;;;;;;;13.21;46.08;99451.94;10425665;28;20324;-43
2023/12/23 10:19:14;;;;;;;2.20;2.10;;;;;;;12.69;47.24;99406.16;10421200;28;20244;-43
2023/12/23 10:24:16;;;;;;;2.30;2.20;;;;;;;13.01;46.01;99466.22;10428010;28;20799;-44
2023/12/23 10:29:19;;;;;;;2.17;2.07;;;;;;;11.90;47.28;99579.28;10410408;28;20240;-43
2023/12/23 10:34:23;;;;;;;2.40;2.30;;;;;;;11.43;48.17;99523.50;10430653;28;20238;-44
2023/12/23 10:39:28;;;;;;;2.40;2.30;;;;;;;12.41;47.61;99392.91;10417808;28;20277;-43
2023/12/23 10:44:32;;;;;;;2.57;2.37;;;;;;;12.18;47.38;99490.69;10425773;28;20245;-43
2023/12/23 10:49:35;;;;;;;2.73;2.53;;;;;;;12.73;46.20;99491.41;10427038;28;20250;-44
2023/12/23 10:54:37;;;;;;;11.60;6.47;;;;;;;13.14;45.79;99400.91;10424276;28;20271;-42
2023/12/23 10:59:39;;;;;;;6.83;4.77;;;;;;;14.11;44.56;99382.09;10433475;28;20248;-43
2023/12/23 11:06:14;;;;;;;4.50;3.07;;;;;;;10.32;51.99;99370.69;10455256;27;21152;-67
2023/12/23 11:11:17;;;;;;;2.63;2.43;;;;;;;9.24;52.29;99479.19;10393174;28;20757;-67
2023/12/23 11:16:19;;;;;;;4.47;3.70;;;;;;;10.36;51.95;99313.16;10388263;28;20238;-66
2023/12/23 11:21:21;;;;;;;2.20;2.10;;;;;;;9.35;53.20;99363.94;10383041;28;20236;-77
2023/12/23 11:26:35;;;;;;;2.50;2.37;;;;;;;9.35;53.13;99390.63;10384000;28;20243;-75
2023/12/23 11:31:40;;;;;;;2.40;2.30;;;;;;;8.75;53.96;99435.09;10393018;28;20235;-71
2023/12/23 11:36:43;;;;;;;2.00;1.90;;;;;;;9.54;52.44;99456.00;10397395;28;20248;-77
2023/12/23 11:41:46;;;;;;;2.00;1.90;;;;;;;9.12;52.71;99476.16;10398808;28;20234;-65
2023/12/23 11:46:47;;;;;;;2.20;2.10;;;;;;;10.31;52.64;99257.56;10396485;28;20247;-66
2023/12/23 11:51:49;;;;;;;2.60;2.50;;;;;;;9.85;53.03;99343.53;10393178;28;20763;-67
2023/12/23 11:56:51;;;;;;;3.43;3.17;;;;;;;10.04;52.95;99303.81;10392195;28;20300;-66
2023/12/23 12:01:52;;;;;;;2.20;2.10;;;;;;;9.34;53.65;99442.38;10389979;28;20241;-67
2023/12/23 12:06:54;;;;;;;2.30;2.20;;;;;;;9.93;52.32;99442.31;10396179;28;20517;-67
2023/12/23 12:11:56;;;;;;;2.60;2.40;;;;;;;9.45;53.83;99425.88;10391750;28;20228;-67
2023/12/23 12:16:58;;;;;;;2.40;2.30;;;;;;;10.05;52.57;99447.16;10375121;28;20243;-75
2023/12/23 12:21:59;;;;;;;2.63;2.20;;;;;;;10.18;53.42;99332.34;10368655;28;20237;-66
2023/12/23 12:27:02;;;;;;;2.60;2.40;;;;;;;10.69;52.43;99277.75;10363434;28;20255;-66
2023/12/23 12:32:04;;;;;;;2.30;2.20;;;;;;;9.65;53.90;99378.06;10366699;28;20253;-71
2023/12/23 12:37:08;;;;;;;3.33;3.03;;;;;;;10.62;51.89;99406.13;10366754;28;20239;-66
2023/12/23 12:42:10;;;;;;;2.70;2.50;;;;;;;11.26;50.81;99364.16;10363849;28;20233;-72
2023/12/23 12:47:11;;;;;;;2.50;2.30;;;;;;;10.03;53.25;99382.38;10367512;28;20236;-66
2023/12/23 12:52:13;;;;;;;2.10;2.00;;;;;;;9.88;53.30;99379.75;10384966;28;20229;-79
2023/12/23 12:57:15;;;;;;;2.20;2.10;;;;;;;10.81;51.43;99414.53;10376395;28;20233;-78
2023/12/23 13:02:18;;;;;;;2.50;2.40;;;;;;;10.64;51.08;99487.03;10369604;28;20478;-66
2023/12/23 13:07:20;;;;;;;2.00;1.90;;;;;;;10.59;51.73;99475.25;10369053;28;20335;-76
2023/12/23 13:12:22;;;;;;;2.03;1.93;;;;;;;11.41;50.96;99329.19;10367122;28;20324;-67
2023/12/23 13:17:25;;;;;;;2.53;2.43;;;;;;;10.88;51.87;99356.53;10358683;28;20236;-66
2023/12/23 13:22:26;;;;;;;2.70;2.50;;;;;;;10.62;52.12;99351.81;10353467;28;20323;-70
2023/12/23 13:27:28;;;;;;;2.50;2.30;;;;;;;11.25;51.09;99419.56;10355871;28;20269;-66
2023/12/23 13:32:32;;;;;;;2.10;2.00;;;;;;;10.39;52.13;99454.50;10350297;28;20332;-70
2023/12/23 13:37:34;;;;;;;2.00;1.83;;;;;;;10.98;50.36;99514.13;10350470;28;20290;-69
2023/12/23 13:42:37;;;;;;;2.20;2.10;;;;;;;10.91;50.30;99559.56;10354557;28;20232;-68
2023/12/23 13:47:40;;;;;;;2.10;2.00;;;;;;;10.73;51.00;99537.75;10354282;28;20701;-69
2023/12/23 13:52:41;;;;;;;2.10;2.00;;;;;;;10.38;53.00;99436.81;10353668;28;20244;-66
2023/12/23 13:57:43;;;;;;;2.07;1.97;;;;;;;11.43;50.58;99494.03;10354157;28;20233;-67
2023/12/23 14:02:45;;;;;;;2.20;2.10;;;;;;;10.62;52.13;99442.78;10357584;28;20728;-70
2023/12/23 14:07:46;;;;;;;2.07;1.97;;;;;;;10.11;52.63;99497.22;10351554;28;20787;-68
2023/12/23 14:12:48;;;;;;;2.20;2.10;;;;;;;11.30;50.41;99503.84;10351213;28;20285;-67
2023/12/23 14:17:50;;;;;;;2.10;2.00;;;;;;;11.23;49.94;99568.91;10355336;28;20241;-67
2023/12/23 14:22:52;;;;;;;2.10;2.00;;;;;;;10.48;51.99;99551.53;10353460;28;20686;-82
2023/12/23 14:27:54;;;;;;;1.97;1.87;;;;;;;9.74;52.74;99629.94;10353840;28;20234;-67
2023/12/23 14:32:56;;;;;;;2.00;1.90;;;;;;;11.76;50.04;99487.22;10342155;28;20226;-67
2023/12/23 14:37:58;;;;;;;2.20;2.10;;;;;;;10.46;51.92;99648.00;10355567;28;21458;-67
2023/12/23 14:43:00;;;;;;;2.70;2.50;;;;;;;10.40;53.07;99492.78;10357527;28;20837;-67
2023/12/23 14:48:02;;;;;;;2.10;2.00;;;;;;;10.46;53.53;99454.56;10355787;28;20331;-67
2023/12/23 14:53:03;;;;;;;1.90;1.80;;;;;;;10.47;51.67;99580.09;10358312;28;20288;-67
2023/12/23 14:58:06;;;;;;;2.10;2.00;;;;;;;11.25;51.00;99496.41;10355452;28;20248;-66
2023/12/23 15:03:08;;;;;;;3.03;2.83;;;;;;;10.68;51.43;99592.69;10353255;28;20267;-67
2023/12/23 15:08:09;;;;;;;2.40;2.30;;;;;;;10.97;50.69;99630.28;10356146;28;20265;-67
2023/12/23 15:13:11;;;;;;;2.30;2.20;;;;;;;10.63;51.28;99583.56;10358276;28;20308;-67
2023/12/23 15:18:13;;;;;;;4.57;2.57;;;;;;;11.35;50.42;99573.75;10356542;28;20240;-67
2023/12/23 15:23:15;;;;;;;2.30;2.20;;;;;;;10.89;50.52;99561.63;10357771;28;20263;-67
2023/12/23 15:28:16;;;;;;;2.70;2.50;;;;;;;10.96;49.37;99685.66;10356413;28;20320;-67
2023/12/23 15:33:19;;;;;;;2.23;2.13;;;;;;;10.80;50.26;99617.13;10357801;28;20229;-67
2023/12/23 15:38:21;;;;;;;2.50;2.30;;;;;;;12.14;48.59;99506.34;10348653;28;20320;-67
2023/12/23 15:43:23;;;;;;;2.10;2.00;;;;;;;10.65;50.29;99649.25;10348323;28;20709;-79
2023/12/23 15:48:25;;;;;;;3.03;2.30;;;;;;;10.30;50.36;99637.53;10351865;28;20660;-75
2023/12/23 15:53:26;;;;;;;2.40;2.20;;;;;;;11.81;47.76;99632.22;10361953;28;20224;-66
2023/12/23 15:58:28;;;;;;;2.63;2.20;;;;;;;10.69;49.01;99754.91;10358492;28;20239;-67
2023/12/23 16:03:31;;;;;;;1.90;1.80;;;;;;;11.77;48.76;99519.19;10359304;28;20282;-67
2023/12/23 16:08:33;;;;;;;2.30;2.20;;;;;;;11.50;48.39;99603.94;10357219;28;20343;-69
2023/12/23 16:13:34;;;;;;;3.40;2.90;;;;;;;12.30;47.46;99532.00;10361902;28;20240;-66
2023/12/23 16:18:36;;;;;;;2.70;2.50;;;;;;;12.55;47.08;99529.63;10353229;28;20785;-67
2023/12/23 16:23:38;;;;;;;3.67;2.80;;;;;;;12.68;46.74;99549.47;10358027;28;20245;-67
2023/12/23 16:28:40;;;;;;;2.80;2.60;;;;;;;12.84;46.07;99618.88;10356401;28;20704;-70
2023/12/23 16:33:41;;;;;;;2.30;2.20;;;;;;;12.12;46.50;99739.09;10359131;28;20268;-66
2023/12/23 16:38:43;;;;;;;2.53;2.33;;;;;;;11.53;47.54;99732.19;10358725;28;20269;-65
2023/12/23 16:43:45;;;;;;;3.70;2.30;;;;;;;11.21;48.02;99718.28;10359747;28;20233;-65
2023/12/23 16:48:47;;;;;;;2.23;2.13;;;;;;;11.76;47.42;99659.63;10356533;28;20231;-74
2023/12/23 16:53:49;;;;;;;2.63;2.43;;;;;;;11.58;48.34;99560.91;10361036;28;20212;-74
2023/12/23 16:58:50;;;;;;;2.50;2.30;;;;;;;12.54;46.48;99576.25;10360675;28;20238;-74
2023/12/23 17:03:52;;;;;;;3.40;2.73;;;;;;;12.22;46.92;99580.47;10359393;28;20244;-72
2023/12/23 17:08:54;;;;;;;2.27;2.17;;;;;;;11.42;47.46;99748.75;10358377;28;20698;-72
2023/12/23 17:13:56;;;;;;;3.00;2.70;;;;;;;11.59;47.78;99655.53;10356968;28;20256;-75
2023/12/23 17:18:59;;;;;;;2.70;2.50;;;;;;;11.69;47.40;99712.34;10351048;28;20322;-74
2023/12/23 17:24:00;;;;;;;2.30;2.10;;;;;;;11.89;46.83;99691.06;10359420;28;20252;-76
2023/12/23 17:29:02;;;;;;;2.20;2.10;;;;;;;12.05;46.53;99667.66;10357684;28;20252;-67
2023/12/23 17:34:04;;;;;;;2.23;2.13;;;;;;;12.71;45.51;99664.50;10360899;28;20265;-68
2023/12/23 17:39:06;;;;;;;3.57;2.20;;;;;;;13.44;44.83;99597.44;10357609;28;20722;-66
2023/12/23 17:44:08;;;;;;;2.40;2.20;;;;;;;12.22;46.45;99671.69;10355896;28;20249;-67
2023/12/23 17:49:10;;;;;;;2.30;2.10;;;;;;;12.06;46.76;99701.50;10352549;28;20771;-67
2023/12/23 17:54:12;;;;;;;2.37;2.10;;;;;;;11.87;47.29;99694.97;10357561;28;20237;-66
2023/12/23 17:59:13;;;;;;;1.80;1.70;;;;;;;11.87;47.15;99690.44;10357108;28;20241;-67
2023/12/23 18:04:15;;;;;;;2.10;2.00;;;;;;;12.07;46.58;99685.19;10359043;28;20558;-67
2023/12/23 18:09:17;;;;;;;2.00;1.80;;;;;;;12.21;46.80;99686.09;10358825;28;20332;-67
2023/12/23 18:14:18;;;;;;;2.27;2.07;;;;;;;13.70;44.98;99637.97;10357569;28;20710;-67
2023/12/23 18:19:20;;;;;;;2.60;2.27;;;;;;;12.67;45.63;99778.66;10358354;28;20696;-66
2023/12/23 18:24:22;;;;;;;2.57;2.37;;;;;;;14.06;44.60;99626.75;10358432;28;20288;-66
2023/12/23 18:29:23;;;;;;;2.63;2.43;;;;;;;12.27;46.62;99747.03;10357601;28;20326;-65
2023/12/23 18:34:26;;;;;;;3.20;2.90;;;;;;;14.03;43.88;99732.88;10352672;28;20279;-66
2023/12/23 18:39:28;;;;;;;2.40;2.20;;;;;;;12.04;47.04;99725.00;10356288;28;20245;-66
2023/12/23 18:44:30;;;;;;;3.03;2.73;;;;;;;12.27;46.31;99783.78;10355732;28;20683;-67
2023/12/23 18:49:32;;;;;;;2.40;2.20;;;;;;;13.16;45.31;99760.69;10356488;28;20607;-67
2023/12/23 18:54:33;;;;;;;2.80;2.33;;;;;;;12.38;46.67;99772.47;10356383;28;20241;-66
2023/12/23 18:59:35;;;;;;;2.50;2.30;;;;;;;12.27;46.93;99725.56;10355730;28;20319;-68
2023/12/23 19:04:37;;;;;;;2.00;1.90;;;;;;;12.49;46.32;99733.56;10355382;28;20241;-68
2023/12/23 19:09:39;;;;;;;2.50;2.30;;;;;;;13.88;45.15;99635.44;10358122;28;20240;-68
2023/12/23 19:14:41;;;;;;;3.00;2.80;;;;;;;13.36;45.35;99654.13;10354225;28;20659;-68
2023/12/23 19:19:44;;;;;;;2.33;2.23;;;;;;;13.55;45.18;99641.72;10358104;28;20940;-68
2023/12/23 19:24:46;;;;;;;3.07;2.87;;;;;;;13.48;44.16;99780.66;10354886;28;20355;-69
2023/12/23 19:29:48;;;;;;;2.43;2.20;;;;;;;12.17;47.01;99735.81;10365851;28;20241;-68
2023/12/23 19:34:50;;;;;;;2.03;1.93;;;;;;;13.18;46.15;99711.09;10364212;28;20332;-68
2023/12/23 19:39:51;;;;;;;2.13;2.03;;;;;;;13.12;46.45;99706.53;10363980;28;20244;-68
2023/12/23 19:45:07;;;;;;;2.37;2.27;;;;;;;12.76;46.65;99713.03;10359807;28;20237;-68
2023/12/23 19:50:09;;;;;;;2.13;2.03;;;;;;;13.46;46.04;99648.31;10363507;28;20240;-69
2023/12/23 19:55:12;;;;;;;1.83;1.80;;;;;;;12.42;46.94;99759.50;10363092;28;20229;-69
2023/12/23 20:00:14;;;;;;;1.93;1.83;;;;;;;12.06;46.66;99806.91;10362119;28;20248;-68
2023/12/23 20:05:16;;;;;;;2.20;2.00;;;;;;;11.71;47.03;99832.78;10362610;28;20331;-68
2023/12/23 20:10:18;;;;;;;2.60;2.17;;;;;;;12.47;46.15;99795.50;10361271;28;20233;-69
2023/12/23 20:15:20;;;;;;;1.80;1.70;;;;;;;13.94;44.73;99660.69;10362695;28;20229;-68
2023/12/23 20:20:21;;;;;;;3.00;2.70;;;;;;;13.75;44.22;99708.06;10347510;28;20445;-76
2023/12/23 20:25:23;;;;;;;2.30;2.20;;;;;;;13.30;44.24;99792.00;10354755;28;20438;-75
2023/12/23 20:30:25;;;;;;;2.30;2.20;;;;;;;13.13;45.63;99685.88;10356492;28;20713;-76
2023/12/23 20:35:30;;;;;;;2.33;2.23;;;;;;;13.53;44.40;99759.38;10353793;28;20280;-75
2023/12/23 20:40:31;;;;;;;2.07;1.97;;;;;;;13.78;44.47;99721.13;10360599;28;20260;-75
2023/12/23 20:45:33;;;;;;;2.00;1.90;;;;;;;13.54;44.95;99757.50;10356123;28;20241;-75
2023/12/23 20:50:35;;;;;;;2.00;1.90;;;;;;;12.63;46.41;99764.81;10357729;28;20247;-76
2023/12/23 20:55:36;;;;;;;2.03;1.93;;;;;;;13.17;45.41;99736.31;10357915;28;20240;-75
2023/12/23 21:00:38;;;;;;;2.30;2.10;;;;;;;14.56;43.91;99680.84;10357324;28;20614;-76
2023/12/23 21:05:42;;;;;;;2.10;2.00;;;;;;;12.91;45.96;99684.19;10356543;28;20299;-75
2023/12/23 21:10:44;;;;;;;1.90;1.80;;;;;;;13.88;43.78;99786.06;10354330;28;20244;-76
2023/12/23 21:15:46;;;;;;;1.97;1.87;;;;;;;13.36;44.18;99806.47;10359337;28;20229;-77
2023/12/23 21:20:47;;;;;;;2.73;2.53;;;;;;;13.27;44.30;99817.34;10364248;28;20229;-77
2023/12/23 21:25:49;;;;;;;1.83;1.73;;;;;;;13.52;44.32;99757.72;10355197;28;20240;-77
2023/12/23 21:30:53;;;;;;;2.70;2.50;;;;;;;12.60;45.15;99848.41;10361797;28;20237;-78
2023/12/23 21:35:54;;;;;;;2.10;2.00;;;;;;;14.12;43.13;99749.69;10362627;28;20233;-77
2023/12/23 21:40:56;;;;;;;2.37;2.27;;;;;;;13.36;45.04;99750.03;10360754;28;20240;-76
2023/12/23 21:45:59;;;;;;;2.00;1.90;;;;;;;12.96;45.41;99795.53;10356615;28;20299;-78
2023/12/23 21:51:00;;;;;;;2.50;2.30;;;;;;;13.81;43.89;99774.50;10356802;28;20666;-74
2023/12/23 21:56:02;;;;;;;2.17;2.07;;;;;;;13.64;44.11;99755.25;10360027;28;20233;-73
2023/12/23 22:01:06;;;;;;;2.20;2.10;;;;;;;13.09;45.67;99701.56;10362220;28;20820;-75
2023/12/23 22:06:08;;;;;;;2.10;2.00;;;;;;;13.34;44.77;99687.59;10360916;28;20612;-68
2023/12/23 22:11:10;;;;;;;2.60;2.40;;;;;;;13.41;44.43;99748.41;10362040;28;20229;-77
2023/12/23 22:16:13;;;;;;;2.30;2.20;;;;;;;12.27;45.92;99811.41;10361324;28;20225;-74
2023/12/23 22:21:14;;;;;;;2.00;1.90;;;;;;;13.23;44.59;99740.88;10359694;28;20320;-74
2023/12/23 22:26:17;;;;;;;2.67;2.47;;;;;;;13.72;44.16;99740.78;10359491;28;20704;-73
2023/12/23 22:31:18;;;;;;;3.60;2.50;;;;;;;13.36;45.50;99678.31;10356428;28;20359;-74
2023/12/23 22:36:21;;;;;;;2.00;1.90;;;;;;;13.28;45.40;99734.94;10357367;28;20275;-73
2023/12/23 22:41:23;;;;;;;2.30;2.20;;;;;;;13.37;45.71;99660.31;10361230;28;20960;-74
2023/12/23 22:46:25;;;;;;;2.10;2.00;;;;;;;14.08;44.12;99650.75;10358959;28;20488;-68
2023/12/23 22:51:29;;;;;;;2.17;2.00;;;;;;;12.90;45.59;99736.22;10356391;28;20244;-68
2023/12/23 22:56:31;;;;;;;2.70;2.50;;;;;;;14.21;42.93;99755.69;10357393;28;20233;-69
2023/12/23 23:01:33;;;;;;;2.17;1.97;;;;;;;14.72;42.13;99771.06;10355682;28;20241;-68
2023/12/23 23:06:35;;;;;;;2.27;2.17;;;;;;;13.64;44.49;99682.66;10357282;28;20272;-68
2023/12/23 23:11:36;;;;;;;2.00;1.90;;;;;;;12.28;45.95;99761.25;10357966;28;20229;-68
2023/12/23 23:16:38;;;;;;;1.93;1.83;;;;;;;12.36;45.89;99719.00;10356978;28;20665;-68
2023/12/23 23:21:40;;;;;;;2.30;2.20;;;;;;;12.00;45.33;99815.75;10357778;28;20228;-68
2023/12/23 23:26:42;;;;;;;2.07;1.97;;;;;;;13.82;43.83;99709.75;10355342;28;20236;-68
2023/12/23 23:31:43;;;;;;;2.00;1.90;;;;;;;14.80;41.95;99678.44;10357943;28;20651;-68